Terminal Aerodrome Forecast
Issued by NWS Albany, NY

Home | Current Version | Previous Version | Text Only | Print | Product List | Glossary On
Versions: 1 2 3 4 5 6 7 8 9 10 11 12 13 14 15 16 17 18 19 20
000
FTUS41 KALY 262320
TAFPOU
TAF
KPOU 262320Z 2700/2724 29007KT P6SM FEW080
     FM270800 VRB03KT P6SM MIFG SCT060
      TEMPO 2708/2712 BKN060
     FM271200 23007KT P6SM VCSH BKN060=

USA.gov is the U.S. government's official web portal to all federal, state and local government web resources and services.